Terminal Aerodrome Forecast
Issued by NWS Sterling, VA

Current Version | Previous Version | Text Only | Print | Product List | Glossary Off
Versions: 1 2 3 4 5 6 7 8 9 10 11 12 13 14

000
FTUS41 KLWX 272300 RRA
TAFDCA
TAF
KDCA 272342Z 2800/2824 VRB03KT P6SM SCT150
     FM280800 21005KT P6SM BKN080
     FM281400 24004KT P6SM -RA OVC070
     FM281700 25004KT 5SM -RA OVC040
     FM282000 26004KT 3SM -RA OVC020=

USA.gov is the U.S. government's official web portal to all federal, state and local government web resources and services.